sensor_id;sensor_type;location;lat;lon;timestamp;pressure;altitude;pressure_sealevel;temperature;humidity
37610;BME280;23457;51.966;8.230;2023-05-11T00:00:33;100693.47;;;14.80;100.00
37610;BME280;23457;51.966;8.230;2023-05-11T00:03:00;100688.22;;;14.83;100.00
37610;BME280;23457;51.966;8.230;2023-05-11T00:05:26;100693.47;;;14.70;100.00
37610;BME280;23457;51.966;8.230;2023-05-11T00:07:53;100692.59;;;14.78;100.00
37610;BME280;23457;51.966;8.230;2023-05-11T00:10:19;100691.72;;;14.76;100.00
37610;BME280;23457;51.966;8.230;2023-05-11T00:12:46;100681.28;;;14.63;100.00
37610;BME280;23457;51.966;8.230;2023-05-11T00:15:13;100676.06;;;14.56;100.00
37610;BME280;23457;51.966;8.230;2023-05-11T00:17:42;100676.94;;;14.50;100.00
37610;BME280;23457;51.966;8.230;2023-05-11T00:20:08;100675.16;;;14.39;100.00
37610;BME280;23457;51.966;8.230;2023-05-11T00:22:37;100669.06;;;14.44;100.00
37610;BME280;23457;51.966;8.230;2023-05-11T00:25:05;100677.78;;;14.37;100.00
37610;BME280;23457;51.966;8.230;2023-05-11T00:27:32;100670.81;;;14.39;100.00
37610;BME280;23457;51.966;8.230;2023-05-11T00:29:58;100679.50;;;14.32;100.00
37610;BME280;23457;51.966;8.230;2023-05-11T00:32:25;100673.47;;;14.44;100.00
37610;BME280;23457;51.966;8.230;2023-05-11T00:34:52;100673.41;;;14.39;100.00
37610;BME280;23457;51.966;8.230;2023-05-11T00:37:18;100668.22;;;14.44;100.00
37610;BME280;23457;51.966;8.230;2023-05-11T00:39:45;100675.19;;;14.51;100.00
37610;BME280;23457;51.966;8.230;2023-05-11T00:42:11;100673.44;;;14.47;100.00
37610;BME280;23457;51.966;8.230;2023-05-11T00:44:38;100678.69;;;14.42;100.00
37610;BME280;23457;51.966;8.230;2023-05-11T00:47:05;100681.28;;;14.45;100.00
37610;BME280;23457;51.966;8.230;2023-05-11T00:49:32;100680.44;;;14.40;100.00
37610;BME280;23457;51.966;8.230;2023-05-11T00:51:59;100676.94;;;14.41;100.00
37610;BME280;23457;51.966;8.230;2023-05-11T00:54:29;100680.44;;;14.40;100.00
37610;BME280;23457;51.966;8.230;2023-05-11T00:56:56;100676.06;;;14.48;100.00
37610;BME280;23457;51.966;8.230;2023-05-11T00:59:22;100676.94;;;14.53;100.00
37610;BME280;23457;51.966;8.230;2023-05-11T01:01:50;100676.06;;;14.53;100.00
37610;BME280;23457;51.966;8.230;2023-05-11T01:04:16;100678.69;;;14.51;100.00
37610;BME280;23457;51.966;8.230;2023-05-11T01:12:02;100676.94;;;14.65;100.00
37610;BME280;23457;51.966;8.230;2023-05-11T01:14:38;100686.50;;;14.60;100.00
37610;BME280;23457;51.966;8.230;2023-05-11T01:17:10;100681.28;;;14.60;100.00
37610;BME280;23457;51.966;8.230;2023-05-11T01:19:43;100683.88;;;14.59;100.00
37610;BME280;23457;51.966;8.230;2023-05-11T01:22:43;100686.50;;;14.60;100.00
37610;BME280;23457;51.966;8.230;2023-05-11T01:25:30;100688.28;;;14.55;100.00
37610;BME280;23457;51.966;8.230;2023-05-11T01:30:53;100686.50;;;14.57;100.00
37610;BME280;23457;51.966;8.230;2023-05-11T01:33:30;100680.41;;;14.69;100.00
37610;BME280;23457;51.966;8.230;2023-05-11T01:36:02;100691.75;;;14.63;100.00
37610;BME280;23457;51.966;8.230;2023-05-11T01:38:33;100683.91;;;14.56;100.00
37610;BME280;23457;51.966;8.230;2023-05-11T01:41:09;100688.25;;;14.64;100.00
37610;BME280;23457;51.966;8.230;2023-05-11T01:43:39;100685.63;;;14.57;100.00
37610;BME280;23457;51.966;8.230;2023-05-11T01:46:08;100690.03;;;14.56;100.00
37610;BME280;23457;51.966;8.230;2023-05-11T01:48:38;100697.84;;;14.65;100.00
37610;BME280;23457;51.966;8.230;2023-05-11T01:51:06;100689.13;;;14.66;100.00
37610;BME280;23457;51.966;8.230;2023-05-11T01:53:36;100693.50;;;14.52;100.00
37610;BME280;23457;51.966;8.230;2023-05-11T01:56:03;100703.94;;;14.31;100.00
37610;BME280;23457;51.966;8.230;2023-05-11T01:58:32;100697.84;;;14.40;100.00
37610;BME280;23457;51.966;8.230;2023-05-11T02:01:01;100703.09;;;14.40;100.00
37610;BME280;23457;51.966;8.230;2023-05-11T02:03:32;100699.56;;;14.36;100.00
37610;BME280;23457;51.966;8.230;2023-05-11T02:06:03;100700.41;;;14.23;100.00
37610;BME280;23457;51.966;8.230;2023-05-11T02:08:32;100703.03;;;14.33;100.00
37610;BME280;23457;51.966;8.230;2023-05-11T02:11:01;100709.19;;;14.43;100.00
37610;BME280;23457;51.966;8.230;2023-05-11T02:13:28;100703.06;;;14.44;100.00
37610;BME280;23457;51.966;8.230;2023-05-11T02:15:58;100703.94;;;14.48;100.00
37610;BME280;23457;51.966;8.230;2023-05-11T02:18:28;100698.72;;;14.40;100.00
37610;BME280;23457;51.966;8.230;2023-05-11T02:20:57;100704.78;;;14.34;100.00
37610;BME280;23457;51.966;8.230;2023-05-11T02:23:25;100708.28;;;14.35;100.00
37610;BME280;23457;51.966;8.230;2023-05-11T02:25:53;100710.00;;;14.34;100.00
37610;BME280;23457;51.966;8.230;2023-05-11T02:28:21;100701.34;;;14.40;100.00
37610;BME280;23457;51.966;8.230;2023-05-11T02:30:55;100703.97;;;14.40;100.00
37610;BME280;23457;51.966;8.230;2023-05-11T02:33:27;100700.44;;;14.38;100.00
37610;BME280;23457;51.966;8.230;2023-05-11T02:35:56;100700.47;;;14.41;100.00
37610;BME280;23457;51.966;8.230;2023-05-11T02:38:34;100699.56;;;14.34;100.00
37610;BME280;23457;51.966;8.230;2023-05-11T02:41:09;100703.06;;;14.27;100.00
37610;BME280;23457;51.966;8.230;2023-05-11T02:43:39;100717.00;;;14.26;100.00
37610;BME280;23457;51.966;8.230;2023-05-11T02:46:12;100708.25;;;14.33;100.00
37610;BME280;23457;51.966;8.230;2023-05-11T02:48:42;100698.72;;;14.40;100.00
37610;BME280;23457;51.966;8.230;2023-05-11T02:51:13;100702.19;;;14.39;100.00
37610;BME280;23457;51.966;8.230;2023-05-11T02:53:47;100702.19;;;14.39;100.00
37610;BME280;23457;51.966;8.230;2023-05-11T02:56:16;100709.16;;;14.37;100.00
37610;BME280;23457;51.966;8.230;2023-05-11T02:58:43;100700.44;;;14.35;100.00
37610;BME280;23457;51.966;8.230;2023-05-11T03:01:20;100712.63;;;14.34;100.00
37610;BME280;23457;51.966;8.230;2023-05-11T03:03:47;100706.56;;;14.40;100.00
37610;BME280;23457;51.966;8.230;2023-05-11T03:06:14;100711.75;;;14.32;100.00
37610;BME280;23457;51.966;8.230;2023-05-11T03:08:41;100710.03;;;14.27;100.00
37610;BME280;23457;51.966;8.230;2023-05-11T03:11:09;100709.13;;;14.22;100.00
37610;BME280;23457;51.966;8.230;2023-05-11T03:13:38;100710.03;;;14.27;100.00
37610;BME280;23457;51.966;8.230;2023-05-11T03:16:06;100709.16;;;14.28;100.00
37610;BME280;23457;51.966;8.230;2023-05-11T03:18:35;100710.88;;;14.23;100.00
37610;BME280;23457;51.966;8.230;2023-05-11T03:21:02;100709.16;;;14.29;100.00
37610;BME280;23457;51.966;8.230;2023-05-11T03:23:31;100703.03;;;14.21;100.00
37610;BME280;23457;51.966;8.230;2023-05-11T03:25:58;100707.41;;;14.30;100.00
37610;BME280;23457;51.966;8.230;2023-05-11T03:28:26;100707.41;;;14.30;100.00
37610;BME280;23457;51.966;8.230;2023-05-11T03:31:00;100710.88;;;14.24;100.00
37610;BME280;23457;51.966;8.230;2023-05-11T03:33:28;100703.06;;;14.29;100.00
37610;BME280;23457;51.966;8.230;2023-05-11T03:35:57;100708.31;;;14.43;100.00
37610;BME280;23457;51.966;8.230;2023-05-11T03:38:28;100707.44;;;14.41;100.00
37610;BME280;23457;51.966;8.230;2023-05-11T03:40:56;100707.41;;;14.33;100.00
37610;BME280;23457;51.966;8.230;2023-05-11T03:43:27;100710.88;;;14.35;100.00
37610;BME280;23457;51.966;8.230;2023-05-11T03:45:55;100703.09;;;14.41;100.00
37610;BME280;23457;51.966;8.230;2023-05-11T03:48:24;100712.66;;;14.45;100.00
37610;BME280;23457;51.966;8.230;2023-05-11T03:50:51;100702.19;;;14.45;100.00
37610;BME280;23457;51.966;8.230;2023-05-11T03:53:18;100710.06;;;14.42;100.00
37610;BME280;23457;51.966;8.230;2023-05-11T03:55:46;100711.81;;;14.40;100.00
37610;BME280;23457;51.966;8.230;2023-05-11T03:58:13;100708.28;;;14.38;100.00
37610;BME280;23457;51.966;8.230;2023-05-11T04:00:41;100699.56;;;14.38;100.00
37610;BME280;23457;51.966;8.230;2023-05-11T04:03:08;100707.41;;;14.39;100.00
37610;BME280;23457;51.966;8.230;2023-05-11T04:05:37;100706.53;;;14.39;100.00
37610;BME280;23457;51.966;8.230;2023-05-11T04:08:06;100708.28;;;14.30;100.00
37610;BME280;23457;51.966;8.230;2023-05-11T04:10:33;100709.16;;;14.31;100.00
37610;BME280;23457;51.966;8.230;2023-05-11T04:13:01;100709.13;;;14.34;100.00
37610;BME280;23457;51.966;8.230;2023-05-11T04:15:27;100712.63;;;14.15;100.00
37610;BME280;23457;51.966;8.230;2023-05-11T04:17:55;100707.41;;;14.27;100.00
37610;BME280;23457;51.966;8.230;2023-05-11T04:20:21;100713.50;;;14.37;100.00
37610;BME280;23457;51.966;8.230;2023-05-11T04:22:48;100701.31;;;14.35;100.00
37610;BME280;23457;51.966;8.230;2023-05-11T04:25:15;100708.31;;;14.43;100.00
37610;BME280;23457;51.966;8.230;2023-05-11T04:27:42;100709.19;;;14.40;100.00
37610;BME280;23457;51.966;8.230;2023-05-11T04:30:08;100713.50;;;14.35;100.00
37610;BME280;23457;51.966;8.230;2023-05-11T04:32:35;100706.53;;;14.37;100.00
37610;BME280;23457;51.966;8.230;2023-05-11T04:35:02;100711.78;;;14.39;100.00
37610;BME280;23457;51.966;8.230;2023-05-11T04:37:33;100710.91;;;14.38;100.00
37610;BME280;23457;51.966;8.230;2023-05-11T04:40:01;100714.41;;;14.31;100.00
37610;BME280;23457;51.966;8.230;2023-05-11T04:42:34;100704.78;;;14.31;100.00
37610;BME280;23457;51.966;8.230;2023-05-11T04:45:03;100713.50;;;14.37;100.00
37610;BME280;23457;51.966;8.230;2023-05-11T04:47:30;100712.63;;;14.27;100.00
37610;BME280;23457;51.966;8.230;2023-05-11T04:49:58;100716.13;;;14.35;100.00
37610;BME280;23457;51.966;8.230;2023-05-11T04:52:24;100718.78;;;14.40;100.00
37610;BME280;23457;51.966;8.230;2023-05-11T04:54:51;100716.16;;;14.41;100.00
37610;BME280;23457;51.966;8.230;2023-05-11T04:57:18;100717.91;;;14.51;100.00
37610;BME280;23457;51.966;8.230;2023-05-11T04:59:46;100720.50;;;14.50;100.00
37610;BME280;23457;51.966;8.230;2023-05-11T05:02:13;100720.50;;;14.57;100.00
37610;BME280;23457;51.966;8.230;2023-05-11T05:04:39;100719.63;;;14.46;100.00
37610;BME280;23457;51.966;8.230;2023-05-11T05:07:06;100716.97;;;14.25;100.00
37610;BME280;23457;51.966;8.230;2023-05-11T05:09:33;100731.84;;;14.47;100.00
37610;BME280;23457;51.966;8.230;2023-05-11T05:11:59;100730.09;;;14.48;100.00
37610;BME280;23457;51.966;8.230;2023-05-11T05:14:26;100726.63;;;14.50;100.00
37610;BME280;23457;51.966;8.230;2023-05-11T05:16:53;100730.94;;;14.38;100.00
37610;BME280;23457;51.966;8.230;2023-05-11T05:19:20;100725.75;;;14.44;100.00
37610;BME280;23457;51.966;8.230;2023-05-11T05:21:48;100724.88;;;14.49;100.00
37610;BME280;23457;51.966;8.230;2023-05-11T05:24:15;100734.47;;;14.56;100.00
37610;BME280;23457;51.966;8.230;2023-05-11T05:26:42;100731.84;;;14.62;100.00
37610;BME280;23457;51.966;8.230;2023-05-11T05:29:10;100737.97;;;14.67;100.00
37610;BME280;23457;51.966;8.230;2023-05-11T05:31:37;100744.06;;;14.63;100.00
37610;BME280;23457;51.966;8.230;2023-05-11T05:34:05;100743.19;;;14.63;100.00
37610;BME280;23457;51.966;8.230;2023-05-11T05:36:32;100739.72;;;14.68;100.00
37610;BME280;23457;51.966;8.230;2023-05-11T05:38:58;100743.16;;;14.70;100.00
37610;BME280;23457;51.966;8.230;2023-05-11T05:41:25;100747.53;;;14.75;100.00
37610;BME280;23457;51.966;8.230;2023-05-11T05:43:53;100744.03;;;14.83;100.00
37610;BME280;23457;51.966;8.230;2023-05-11T05:46:20;100734.44;;;14.82;100.00
37610;BME280;23457;51.966;8.230;2023-05-11T05:48:47;100751.03;;;14.80;100.00
37610;BME280;23457;51.966;8.230;2023-05-11T05:51:14;100747.53;;;14.84;100.00
37610;BME280;23457;51.966;8.230;2023-05-11T05:53:41;100755.41;;;14.81;100.00
37610;BME280;23457;51.966;8.230;2023-05-11T05:56:09;100750.16;;;14.81;100.00
37610;BME280;23457;51.966;8.230;2023-05-11T05:58:35;100754.53;;;14.82;100.00
37610;BME280;23457;51.966;8.230;2023-05-11T06:01:02;100757.13;;;14.86;100.00
37610;BME280;23457;51.966;8.230;2023-05-11T06:03:28;100763.22;;;14.84;100.00
37610;BME280;23457;51.966;8.230;2023-05-11T06:05:55;100770.19;;;14.85;100.00
37610;BME280;23457;51.966;8.230;2023-05-11T06:08:23;100764.97;;;14.76;100.00
37610;BME280;23457;51.966;8.230;2023-05-11T06:10:49;100770.22;;;14.82;100.00
37610;BME280;23457;51.966;8.230;2023-05-11T06:13:16;100766.75;;;14.81;100.00
37610;BME280;23457;51.966;8.230;2023-05-11T06:15:43;100769.34;;;14.87;100.00
37610;BME280;23457;51.966;8.230;2023-05-11T06:18:21;100769.31;;;14.95;100.00
37610;BME280;23457;51.966;8.230;2023-05-11T06:20:48;100777.19;;;14.92;100.00
37610;BME280;23457;51.966;8.230;2023-05-11T06:23:16;100766.72;;;14.92;100.00
37610;BME280;23457;51.966;8.230;2023-05-11T06:25:43;100765.84;;;15.05;100.00
37610;BME280;23457;51.966;8.230;2023-05-11T06:28:10;100771.94;;;15.01;100.00
37610;BME280;23457;51.966;8.230;2023-05-11T06:30:38;100766.69;;;14.99;100.00
37610;BME280;23457;51.966;8.230;2023-05-11T06:33:07;100763.22;;;14.99;100.00
37610;BME280;23457;51.966;8.230;2023-05-11T06:35:37;100765.81;;;15.10;100.00
37610;BME280;23457;51.966;8.230;2023-05-11T06:38:07;100760.59;;;15.07;100.00
37610;BME280;23457;51.966;8.230;2023-05-11T06:40:35;100761.47;;;15.07;100.00
37610;BME280;23457;51.966;8.230;2023-05-11T06:43:01;100765.84;;;15.00;100.00
37610;BME280;23457;51.966;8.230;2023-05-11T06:45:43;100767.56;;;15.07;100.00
37610;BME280;23457;51.966;8.230;2023-05-11T06:48:11;100763.22;;;14.99;100.00
37610;BME280;23457;51.966;8.230;2023-05-11T06:50:37;100764.09;;;15.04;100.00
37610;BME280;23457;51.966;8.230;2023-05-11T06:53:04;100768.47;;;14.78;100.00
37610;BME280;23457;51.966;8.230;2023-05-11T06:55:31;100779.78;;;14.96;100.00
37610;BME280;23457;51.966;8.230;2023-05-11T06:57:58;100779.81;;;14.93;100.00
37610;BME280;23457;51.966;8.230;2023-05-11T07:00:24;100774.56;;;15.04;100.00
37610;BME280;23457;51.966;8.230;2023-05-11T07:02:51;100774.56;;;14.93;100.00
37610;BME280;23457;51.966;8.230;2023-05-11T07:05:18;100771.91;;;15.10;100.00
37610;BME280;23457;51.966;8.230;2023-05-11T07:07:44;100771.88;;;15.21;100.00
37610;BME280;23457;51.966;8.230;2023-05-11T07:10:11;100772.75;;;15.24;100.00
37610;BME280;23457;51.966;8.230;2023-05-11T07:12:38;100769.28;;;15.22;100.00
37610;BME280;23457;51.966;8.230;2023-05-11T07:15:05;100773.69;;;14.99;100.00
37610;BME280;23457;51.966;8.230;2023-05-11T07:17:32;100769.28;;;15.10;100.00
37610;BME280;23457;51.966;8.230;2023-05-11T07:19:59;100777.13;;;15.30;100.00
37610;BME280;23457;51.966;8.230;2023-05-11T07:22:25;100779.72;;;15.42;100.00
37610;BME280;23457;51.966;8.230;2023-05-11T07:24:52;100776.25;;;15.32;100.00
37610;BME280;23457;51.966;8.230;2023-05-11T07:27:18;100781.47;;;15.38;100.00
37610;BME280;23457;51.966;8.230;2023-05-11T07:29:45;100773.59;;;15.45;100.00
37610;BME280;23457;51.966;8.230;2023-05-11T07:32:12;100784.09;;;15.22;100.00
37610;BME280;23457;51.966;8.230;2023-05-11T07:34:38;100778.84;;;15.37;100.00
37610;BME280;23457;51.966;8.230;2023-05-11T07:37:06;100773.56;;;15.46;100.00
37610;BME280;23457;51.966;8.230;2023-05-11T07:39:33;100777.97;;;15.56;100.00
37610;BME280;23457;51.966;8.230;2023-05-11T07:42:00;100774.44;;;15.65;100.00
37610;BME280;23457;51.966;8.230;2023-05-11T07:44:27;100782.34;;;15.57;100.00
37610;BME280;23457;51.966;8.230;2023-05-11T07:46:53;100777.94;;;15.61;100.00
37610;BME280;23457;51.966;8.230;2023-05-11T07:49:20;100781.44;;;15.58;100.00
37610;BME280;23457;51.966;8.230;2023-05-11T07:52:05;100787.50;;;15.71;100.00
37610;BME280;23457;51.966;8.230;2023-05-11T07:54:31;100784.03;;;15.60;100.00
37610;BME280;23457;51.966;8.230;2023-05-11T07:56:59;100784.91;;;15.63;100.00
37610;BME280;23457;51.966;8.230;2023-05-11T07:59:26;100783.22;;;15.56;100.00
37610;BME280;23457;51.966;8.230;2023-05-11T08:01:53;100787.56;;;15.56;100.00
37610;BME280;23457;51.966;8.230;2023-05-11T08:04:20;100783.19;;;15.49;100.00
37610;BME280;23457;51.966;8.230;2023-05-11T08:06:46;100775.34;;;15.56;100.00
37610;BME280;23457;51.966;8.230;2023-05-11T08:09:14;100774.44;;;15.47;100.00
37610;BME280;23457;51.966;8.230;2023-05-11T08:11:40;100773.56;;;15.69;100.00
37610;BME280;23457;51.966;8.230;2023-05-11T08:14:07;100773.56;;;15.63;100.00
37610;BME280;23457;51.966;8.230;2023-05-11T08:16:33;100773.50;;;15.81;100.00
37610;BME280;23457;51.966;8.230;2023-05-11T08:19:02;100771.81;;;15.68;100.00
37610;BME280;23457;51.966;8.230;2023-05-11T08:21:29;100777.00;;;15.80;100.00
37610;BME280;23457;51.966;8.230;2023-05-11T08:23:55;100776.09;;;15.84;100.00
37610;BME280;23457;51.966;8.230;2023-05-11T08:26:22;100777.78;;;15.96;100.00
37610;BME280;23457;51.966;8.230;2023-05-11T08:28:49;100782.13;;;15.97;100.00
37610;BME280;23457;51.966;8.230;2023-05-11T08:31:17;100776.94;;;15.92;100.00
37610;BME280;23457;51.966;8.230;2023-05-11T08:33:44;100778.69;;;15.93;100.00
37610;BME280;23457;51.966;8.230;2023-05-11T08:36:11;100769.91;;;15.99;100.00
37610;BME280;23457;51.966;8.230;2023-05-11T08:38:40;100784.75;;;16.00;100.00
37610;BME280;23457;51.966;8.230;2023-05-11T08:41:11;100780.31;;;16.12;100.00
37610;BME280;23457;51.966;8.230;2023-05-11T08:43:38;100775.94;;;16.18;100.00
37610;BME280;23457;51.966;8.230;2023-05-11T08:46:07;100778.56;;;16.11;100.00
37610;BME280;23457;51.966;8.230;2023-05-11T08:48:34;100778.47;;;16.27;100.00
37610;BME280;23457;51.966;8.230;2023-05-11T08:51:01;100781.22;;;16.07;100.00
37610;BME280;23457;51.966;8.230;2023-05-11T08:53:29;100781.19;;;16.10;100.00
37610;BME280;23457;51.966;8.230;2023-05-11T08:55:57;100785.50;;;16.23;100.00
37610;BME280;23457;51.966;8.230;2023-05-11T08:58:25;100788.00;;;16.41;100.00
37610;BME280;23457;51.966;8.230;2023-05-11T09:00:53;100780.13;;;16.43;100.00
37610;BME280;23457;51.966;8.230;2023-05-11T09:03:20;100787.34;;;16.04;100.00
37610;BME280;23457;51.966;8.230;2023-05-11T09:05:48;100779.28;;;16.39;100.00
37610;BME280;23457;51.966;8.230;2023-05-11T09:08:17;100789.88;;;16.23;100.00
37610;BME280;23457;51.966;8.230;2023-05-11T09:10:44;100793.19;;;16.52;100.00
37610;BME280;23457;51.966;8.230;2023-05-11T09:13:10;100791.28;;;16.72;100.00
37610;BME280;23457;51.966;8.230;2023-05-11T09:15:37;100783.47;;;16.62;100.00
37610;BME280;23457;51.966;8.230;2023-05-11T09:18:04;100790.53;;;16.55;100.00
37610;BME280;23457;51.966;8.230;2023-05-11T09:20:32;100788.78;;;16.57;100.00
37610;BME280;23457;51.966;8.230;2023-05-11T09:23:00;100789.69;;;16.50;100.00
37610;BME280;23457;51.966;8.230;2023-05-11T09:25:29;100791.38;;;16.66;100.00
37610;BME280;23457;51.966;8.230;2023-05-11T09:27:58;100786.09;;;16.69;100.00
37610;BME280;23457;51.966;8.230;2023-05-11T09:30:26;100778.13;;;16.81;100.00
37610;BME280;23457;51.966;8.230;2023-05-11T09:32:58;100778.03;;;16.91;100.00
37610;BME280;23457;51.966;8.230;2023-05-11T09:38:06;100776.38;;;16.80;100.00
37610;BME280;23457;51.966;8.230;2023-05-11T09:40:37;100783.38;;;16.80;100.00
37610;BME280;23457;51.966;8.230;2023-05-11T09:43:19;100785.22;;;16.70;100.00
37610;BME280;23457;51.966;8.230;2023-05-11T09:45:48;100785.00;;;16.95;100.00
37610;BME280;23457;51.966;8.230;2023-05-11T09:50:42;100781.44;;;17.00;100.00
37610;BME280;23457;51.966;8.230;2023-05-11T09:53:09;100789.53;;;16.74;100.00
37610;BME280;23457;51.966;8.230;2023-05-11T09:55:36;100781.72;;;16.71;100.00
37610;BME280;23457;51.966;8.230;2023-05-11T09:58:03;100795.00;;;16.41;100.00
37610;BME280;23457;51.966;8.230;2023-05-11T10:00:30;100782.75;;;16.41;100.00
37610;BME280;23457;51.966;8.230;2023-05-11T10:03:00;100789.84;;;16.30;100.00
37610;BME280;23457;51.966;8.230;2023-05-11T10:05:30;100792.63;;;16.00;100.00
37610;BME280;23457;51.966;8.230;2023-05-11T10:07:59;100791.78;;;15.92;100.00
37610;BME280;23457;51.966;8.230;2023-05-11T10:10:27;100785.75;;;15.76;100.00
37610;BME280;23457;51.966;8.230;2023-05-11T10:12:57;100791.94;;;15.57;100.00
37610;BME280;23457;51.966;8.230;2023-05-11T10:15:26;100792.81;;;15.34;100.00
37610;BME280;23457;51.966;8.230;2023-05-11T10:17:58;100782.38;;;15.13;100.00
37610;BME280;23457;51.966;8.230;2023-05-11T10:20:26;100786.75;;;15.10;100.00
37610;BME280;23457;51.966;8.230;2023-05-11T10:22:54;100786.75;;;15.13;100.00
37610;BME280;23457;51.966;8.230;2023-05-11T10:25:22;100788.53;;;15.06;100.00
37610;BME280;23457;51.966;8.230;2023-05-11T10:27:49;100791.09;;;15.30;100.00
37610;BME280;23457;51.966;8.230;2023-05-11T10:30:16;100793.66;;;15.49;100.00
37610;BME280;23457;51.966;8.230;2023-05-11T10:32:44;100788.44;;;15.35;100.00
37610;BME280;23457;51.966;8.230;2023-05-11T10:35:15;100786.72;;;15.26;100.00
37610;BME280;23457;51.966;8.230;2023-05-11T10:37:41;100786.75;;;15.17;100.00
37610;BME280;23457;51.966;8.230;2023-05-11T10:40:09;100784.97;;;15.33;100.00
37610;BME280;23457;51.966;8.230;2023-05-11T10:45:55;100783.25;;;15.30;100.00
37610;BME280;23457;51.966;8.230;2023-05-11T10:57:43;100787.59;;;15.22;100.00
37610;BME280;23457;51.966;8.230;2023-05-11T11:02:34;100787.59;;;15.28;100.00
37610;BME280;23457;51.966;8.230;2023-05-11T11:05:02;100793.69;;;15.44;100.00
37610;BME280;23457;51.966;8.230;2023-05-11T11:07:31;100791.03;;;15.47;100.00
37610;BME280;23457;51.966;8.230;2023-05-11T11:10:00;100792.81;;;15.33;100.00
37610;BME280;23457;51.966;8.230;2023-05-11T11:12:30;100797.19;;;15.43;100.00
37610;BME280;23457;51.966;8.230;2023-05-11T11:15:04;100789.28;;;15.54;100.00
37610;BME280;23457;51.966;8.230;2023-05-11T11:17:33;100798.03;;;15.53;100.00
37610;BME280;23457;51.966;8.230;2023-05-11T11:20:03;100794.53;;;15.61;100.00
37610;BME280;23457;51.966;8.230;2023-05-11T11:25:13;100789.28;;;15.63;100.00
37610;BME280;23457;51.966;8.230;2023-05-11T11:32:45;100784.81;;;15.89;100.00
37610;BME280;23457;51.966;8.230;2023-05-11T11:38:25;100787.50;;;15.72;100.00
37610;BME280;23457;51.966;8.230;2023-05-11T11:40:55;100786.59;;;15.78;100.00
37610;BME280;23457;51.966;8.230;2023-05-11T11:43:27;100797.03;;;15.86;100.00
37610;BME280;23457;51.966;8.230;2023-05-11T11:45:58;100792.66;;;15.95;100.00
37610;BME280;23457;51.966;8.230;2023-05-11T11:51:06;100784.59;;;16.29;100.00
37610;BME280;23457;51.966;8.230;2023-05-11T11:56:05;100790.84;;;16.03;100.00
37610;BME280;23457;51.966;8.230;2023-05-11T12:01:22;100795.97;;;16.22;100.00
37610;BME280;23457;51.966;8.230;2023-05-11T12:04:08;100792.47;;;16.27;100.00
37610;BME280;23457;51.966;8.230;2023-05-11T12:06:39;100798.66;;;16.11;100.00
37610;BME280;23457;51.966;8.230;2023-05-11T12:09:07;100796.16;;;15.91;100.00
37610;BME280;23457;51.966;8.230;2023-05-11T12:11:34;100801.41;;;15.85;100.00
37610;BME280;23457;51.966;8.230;2023-05-11T12:14:01;100797.97;;;15.75;100.00
37610;BME280;23457;51.966;8.230;2023-05-11T12:16:28;100797.03;;;15.89;100.00
37610;BME280;23457;51.966;8.230;2023-05-11T12:18:57;100790.94;;;15.88;100.00
37610;BME280;23457;51.966;8.230;2023-05-11T12:21:29;100796.94;;;16.08;100.00
37610;BME280;23457;51.966;8.230;2023-05-11T12:24:01;100797.72;;;16.21;100.00
37610;BME280;23457;51.966;8.230;2023-05-11T12:26:29;100793.28;;;16.34;100.00
37610;BME280;23457;51.966;8.230;2023-05-11T12:29:07;100793.25;;;16.40;100.00
37610;BME280;23457;51.966;8.230;2023-05-11T12:31:38;100789.75;;;16.45;100.00
37610;BME280;23457;51.966;8.230;2023-05-11T12:34:05;100787.28;;;16.18;100.00
37610;BME280;23457;51.966;8.230;2023-05-11T12:36:33;100791.66;;;16.18;100.00
37610;BME280;23457;51.966;8.230;2023-05-11T12:39:00;100794.28;;;16.21;100.00
37610;BME280;23457;51.966;8.230;2023-05-11T12:41:27;100785.47;;;16.25;100.00
37610;BME280;23457;51.966;8.230;2023-05-11T12:43:53;100777.41;;;16.57;100.00
37610;BME280;23457;51.966;8.230;2023-05-11T12:46:21;100788.91;;;16.36;100.00
37610;BME280;23457;51.966;8.230;2023-05-11T12:48:50;100774.19;;;16.15;100.00
37610;BME280;23457;51.966;8.230;2023-05-11T12:54:26;100779.19;;;16.52;100.00
37610;BME280;23457;51.966;8.230;2023-05-11T12:56:53;100785.47;;;16.31;100.00
37610;BME280;23457;51.966;8.230;2023-05-11T13:01:53;100778.47;;;16.33;100.00
37610;BME280;23457;51.966;8.230;2023-05-11T13:04:29;100772.44;;;16.12;100.00
37610;BME280;23457;51.966;8.230;2023-05-11T13:06:56;100772.38;;;16.22;100.00
37610;BME280;23457;51.966;8.230;2023-05-11T13:09:24;100772.38;;;16.28;100.00
37610;BME280;23457;51.966;8.230;2023-05-11T13:12:14;100770.53;;;16.37;100.00
37610;BME280;23457;51.966;8.230;2023-05-11T13:14:45;100768.00;;;16.27;100.00
37610;BME280;23457;51.966;8.230;2023-05-11T13:17:27;100767.09;;;16.29;100.00
37610;BME280;23457;51.966;8.230;2023-05-11T13:19:55;100770.56;;;16.34;100.00
37610;BME280;23457;51.966;8.230;2023-05-11T13:22:21;100766.22;;;16.32;100.00
37610;BME280;23457;51.966;8.230;2023-05-11T13:24:48;100766.03;;;16.58;100.00
37610;BME280;23457;51.966;8.230;2023-05-11T13:27:16;100762.66;;;16.39;100.00
37610;BME280;23457;51.966;8.230;2023-05-11T13:29:43;100765.28;;;16.37;100.00
37610;BME280;23457;51.966;8.230;2023-05-11T13:32:09;100762.66;;;16.40;100.00
37610;BME280;23457;51.966;8.230;2023-05-11T13:34:37;100763.28;;;16.77;100.00
37610;BME280;23457;51.966;8.230;2023-05-11T13:37:04;100771.25;;;16.59;100.00
37610;BME280;23457;51.966;8.230;2023-05-11T13:39:30;100763.44;;;16.56;100.00